Terminal Aerodrome Forecast
Issued by NWS

Home | Current Version | Previous Version | Text Only | Print | Product List | Glossary Off
Versions: 1 2 3 4 5 6 7 8 9 10 11 12 13 14 15 16 17 18 19

000
FTUS43 KGRB 271129
TAFCWA
TAF
KCWA 271129Z 2712/2812 29008G15KT P6SM SCT005 OVC035
      TEMPO 2712/2713 5SM -SHRA BKN005
     FM271300 29008G15KT P6SM SCT008 OVC035
      TEMPO 2713/2715 -SHRA BKN008
     FM271500 29008KT P6SM BKN015 BKN035
     FM271800 25009G16KT P6SM SCT035 BKN080
     FM280100 22005KT P6SM SCT035 SCT080
     FM280500 VRB03KT 4SM BR SKC
      TEMPO 2807/2811 1/2SM FG VV002=

USA.gov is the U.S. government's official web portal to all federal, state and local government web resources and services.